createdAt,value
2022-12-11T00:00:07.675Z,17.38
2022-12-11T00:01:07.654Z,17.39
2022-12-11T00:02:07.660Z,17.39
2022-12-11T00:03:11.377Z,17.41
2022-12-11T00:04:08.625Z,17.41
2022-12-11T00:05:07.825Z,17.41
2022-12-11T00:06:07.714Z,17.39
2022-12-11T00:07:07.582Z,17.41
2022-12-11T00:08:07.586Z,17.41
2022-12-11T00:09:07.569Z,17.42
2022-12-11T00:10:07.601Z,17.42
2022-12-11T00:11:07.545Z,17.42
2022-12-11T00:12:07.542Z,17.42
2022-12-11T00:13:07.504Z,17.42
2022-12-11T00:14:07.513Z,17.42
2022-12-11T00:15:08.031Z,17.42
2022-12-11T00:16:07.644Z,17.41
2022-12-11T00:17:07.524Z,17.41
2022-12-11T00:18:07.497Z,17.39
2022-12-11T00:19:07.473Z,17.39
2022-12-11T00:20:07.445Z,17.41
2022-12-11T00:21:07.497Z,17.41
2022-12-11T00:22:07.749Z,17.39
2022-12-11T00:23:07.420Z,17.39
2022-12-11T00:24:07.420Z,17.39
2022-12-11T00:25:07.708Z,17.41
2022-12-11T00:26:07.377Z,17.41
2022-12-11T00:27:07.789Z,17.39
2022-12-11T00:28:07.367Z,17.39
2022-12-11T00:29:07.640Z,17.41
2022-12-11T00:30:07.560Z,17.39
2022-12-11T00:31:07.439Z,17.42
2022-12-11T00:32:07.591Z,17.41
2022-12-11T00:33:07.342Z,17.41
2022-12-11T00:34:07.306Z,17.39
2022-12-11T00:35:07.437Z,17.38
2022-12-11T00:36:07.305Z,17.38
2022-12-11T00:37:07.418Z,17.38
2022-12-11T00:38:07.230Z,17.36
2022-12-11T00:39:07.315Z,17.38
2022-12-11T00:40:07.388Z,17.38
2022-12-11T00:41:07.222Z,17.36
2022-12-11T00:42:07.218Z,17.36
2022-12-11T00:43:07.475Z,17.34
2022-12-11T00:44:07.376Z,17.38
2022-12-11T00:45:07.319Z,17.38
2022-12-11T00:46:07.288Z,17.38
2022-12-11T00:47:07.254Z,17.38
2022-12-11T00:48:07.218Z,17.36
2022-12-11T00:49:07.168Z,17.38
2022-12-11T00:50:07.122Z,17.39
2022-12-11T00:51:07.318Z,17.38
2022-12-11T00:52:07.163Z,17.39
2022-12-11T00:53:07.241Z,17.38
2022-12-11T00:54:07.130Z,17.36
2022-12-11T00:55:07.233Z,17.39
2022-12-11T00:56:07.122Z,17.39
2022-12-11T00:57:07.048Z,17.39
2022-12-11T00:58:07.017Z,17.41
2022-12-11T00:59:07.020Z,17.41
2022-12-11T01:00:07.012Z,17.41
2022-12-11T01:01:07.095Z,17.41
2022-12-11T01:02:06.991Z,17.39
2022-12-11T01:03:07.044Z,17.41
2022-12-11T01:04:06.955Z,17.41
2022-12-11T01:05:06.950Z,17.41
2022-12-11T01:06:06.951Z,17.41
2022-12-11T01:07:06.942Z,17.42
2022-12-11T01:08:06.954Z,17.42
2022-12-11T01:09:06.916Z,17.42
2022-12-11T01:10:06.973Z,17.41
2022-12-11T01:11:06.901Z,17.41
2022-12-11T01:12:06.888Z,17.41
2022-12-11T01:13:06.899Z,17.42
2022-12-11T01:14:06.859Z,17.42
2022-12-11T01:15:06.994Z,17.41
2022-12-11T01:16:06.839Z,17.39
2022-12-11T01:17:06.923Z,17.41
2022-12-11T01:18:06.815Z,17.41
2022-12-11T01:19:06.807Z,17.41
2022-12-11T01:20:06.869Z,17.39
2022-12-11T01:21:06.772Z,17.39
2022-12-11T01:22:06.803Z,17.39
2022-12-11T01:23:06.788Z,17.39
2022-12-11T01:24:06.744Z,17.38
2022-12-11T01:25:06.738Z,17.39
2022-12-11T01:26:06.737Z,17.39
2022-12-11T01:27:06.718Z,17.39
2022-12-11T01:28:06.716Z,17.38
2022-12-11T01:29:06.751Z,17.39
2022-12-11T01:30:06.663Z,17.39
2022-12-11T01:31:06.722Z,17.39
2022-12-11T01:32:06.654Z,17.39
2022-12-11T01:33:06.655Z,17.39
2022-12-11T01:34:06.626Z,17.38
2022-12-11T01:35:06.623Z,17.38
2022-12-11T01:36:06.614Z,17.38
2022-12-11T01:37:06.605Z,17.38
2022-12-11T01:38:06.584Z,17.39
2022-12-11T01:39:06.596Z,17.38
2022-12-11T01:40:06.588Z,17.36
2022-12-11T01:41:06.554Z,17.38
2022-12-11T01:42:06.544Z,17.38
2022-12-11T01:43:06.542Z,17.39
2022-12-11T01:44:06.522Z,17.39
2022-12-11T01:45:06.537Z,17.39
2022-12-11T01:46:06.576Z,17.39
2022-12-11T01:47:06.506Z,17.39
2022-12-11T01:48:06.515Z,17.39
2022-12-11T01:49:06.710Z,17.41
2022-12-11T01:50:06.483Z,17.39
2022-12-11T01:51:06.463Z,17.39
2022-12-11T01:52:06.465Z,17.39
2022-12-11T01:53:06.501Z,17.39
2022-12-11T01:54:06.446Z,17.39
2022-12-11T01:55:06.448Z,17.41
2022-12-11T01:56:06.419Z,17.39
2022-12-11T01:57:06.396Z,17.39
2022-12-11T01:58:06.395Z,17.39
2022-12-11T01:59:06.426Z,17.41
2022-12-11T02:00:06.406Z,17.41
2022-12-11T02:01:06.399Z,17.42
2022-12-11T02:02:07.112Z,17.42
2022-12-11T02:03:06.344Z,17.42
2022-12-11T02:04:06.324Z,17.42
2022-12-11T02:05:06.307Z,17.41
2022-12-11T02:06:06.317Z,17.41
2022-12-11T02:07:06.285Z,17.42
2022-12-11T02:08:06.382Z,17.42
2022-12-11T02:09:06.256Z,17.42
2022-12-11T02:10:06.260Z,17.42
2022-12-11T02:11:06.352Z,17.42
2022-12-11T02:12:06.235Z,17.42
2022-12-11T02:13:06.211Z,17.42
2022-12-11T02:14:06.219Z,17.42
2022-12-11T02:15:06.198Z,17.42
2022-12-11T02:16:06.247Z,17.42
2022-12-11T02:17:06.204Z,17.42
2022-12-11T02:18:06.149Z,17.44
2022-12-11T02:19:06.148Z,17.42
2022-12-11T02:20:06.140Z,17.42
2022-12-11T02:21:06.182Z,17.42
2022-12-11T02:22:06.109Z,17.44
2022-12-11T02:23:06.132Z,17.44
2022-12-11T02:24:06.106Z,17.42
2022-12-11T02:25:06.157Z,17.44
2022-12-11T02:26:06.073Z,17.41
2022-12-11T02:27:06.080Z,17.42
2022-12-11T02:28:06.096Z,17.44
2022-12-11T02:29:06.043Z,17.42
2022-12-11T02:30:06.050Z,17.42
2022-12-11T02:31:06.032Z,17.42
2022-12-11T02:32:06.018Z,17.42
2022-12-11T02:33:06.036Z,17.41
2022-12-11T02:34:06.002Z,17.42
2022-12-11T02:35:05.979Z,17.42
2022-12-11T02:36:05.973Z,17.42
2022-12-11T02:37:05.972Z,17.41
2022-12-11T02:38:05.982Z,17.42
2022-12-11T02:39:05.958Z,17.42
2022-12-11T02:40:05.926Z,17.42
2022-12-11T02:41:05.897Z,17.42
2022-12-11T02:42:05.907Z,17.41
2022-12-11T02:43:05.891Z,17.44
2022-12-11T02:44:05.867Z,17.42
2022-12-11T02:45:05.887Z,17.42
2022-12-11T02:46:05.927Z,17.42
2022-12-11T02:47:05.851Z,17.42
2022-12-11T02:48:05.828Z,17.44
2022-12-11T02:49:05.818Z,17.44
2022-12-11T02:50:05.861Z,17.44
2022-12-11T02:51:05.809Z,17.44
2022-12-11T02:52:05.786Z,17.42
2022-12-11T02:53:05.788Z,17.42
2022-12-11T02:54:06.021Z,17.44
2022-12-11T02:55:05.770Z,17.45
2022-12-11T02:56:05.781Z,17.44
2022-12-11T02:57:05.737Z,17.44
2022-12-11T02:58:05.765Z,17.44
2022-12-11T02:59:05.749Z,17.45
2022-12-11T03:00:05.719Z,17.44
2022-12-11T03:01:05.751Z,17.45
2022-12-11T03:02:05.736Z,17.45
2022-12-11T03:03:05.682Z,17.46
2022-12-11T03:04:05.695Z,17.46
2022-12-11T03:05:05.636Z,17.45
2022-12-11T03:06:05.655Z,17.45
2022-12-11T03:07:05.615Z,17.45
2022-12-11T03:08:05.680Z,17.45
2022-12-11T03:09:05.605Z,17.46
2022-12-11T03:10:05.615Z,17.46
2022-12-11T03:11:05.601Z,17.48
2022-12-11T03:12:05.584Z,17.46
2022-12-11T03:13:05.583Z,17.46
2022-12-11T03:14:05.555Z,17.46
2022-12-11T03:15:05.577Z,17.46
2022-12-11T03:16:05.609Z,17.45
2022-12-11T03:17:05.543Z,17.46
2022-12-11T03:18:05.524Z,17.46
2022-12-11T03:19:05.494Z,17.46
2022-12-11T03:20:05.504Z,17.48
2022-12-11T03:21:05.497Z,17.46
2022-12-11T03:22:05.465Z,17.46
2022-12-11T03:23:05.478Z,17.46
2022-12-11T03:24:05.443Z,17.46
2022-12-11T03:25:05.478Z,17.46
2022-12-11T03:26:05.436Z,17.45
2022-12-11T03:27:10.827Z,17.45
2022-12-11T03:28:06.418Z,17.44
2022-12-11T03:29:05.385Z,17.44
2022-12-11T03:30:05.396Z,17.44
2022-12-11T03:31:05.489Z,17.44
2022-12-11T03:32:05.365Z,17.42
2022-12-11T03:33:05.357Z,17.42
2022-12-11T03:34:05.354Z,17.42
2022-12-11T03:35:05.326Z,17.42
2022-12-11T03:36:05.344Z,17.44
2022-12-11T03:37:05.300Z,17.42
2022-12-11T03:38:05.342Z,17.44
2022-12-11T03:39:05.301Z,17.42
2022-12-11T03:40:05.286Z,17.44
2022-12-11T03:41:05.266Z,17.44
2022-12-11T03:42:05.274Z,17.44
2022-12-11T03:43:05.233Z,17.44
2022-12-11T03:44:05.266Z,17.45
2022-12-11T03:45:05.227Z,17.44
2022-12-11T03:46:05.270Z,17.45
2022-12-11T03:47:05.232Z,17.44
2022-12-11T03:48:05.222Z,17.45
2022-12-11T03:49:05.185Z,17.46
2022-12-11T03:50:05.178Z,17.45
2022-12-11T03:51:05.140Z,17.45
2022-12-11T03:52:05.182Z,17.44
2022-12-11T03:53:05.151Z,17.46
2022-12-11T03:54:05.117Z,17.44
2022-12-11T03:55:05.131Z,17.45
2022-12-11T03:56:05.124Z,17.44
2022-12-11T03:57:05.089Z,17.45
2022-12-11T03:58:05.103Z,17.46
2022-12-11T03:59:05.084Z,17.46
2022-12-11T04:00:05.074Z,17.48
2022-12-11T04:01:05.049Z,17.46
2022-12-11T04:02:05.088Z,17.46
2022-12-11T04:03:09.654Z,17.45
2022-12-11T04:04:06.128Z,17.46
2022-12-11T04:05:05.140Z,17.48
2022-12-11T04:06:05.006Z,17.46
2022-12-11T04:07:04.971Z,17.46
2022-12-11T04:08:05.040Z,17.46
2022-12-11T04:09:05.000Z,17.46
2022-12-11T04:10:04.989Z,17.45
2022-12-11T04:11:04.944Z,17.46
2022-12-11T04:12:04.950Z,17.46
2022-12-11T04:13:04.908Z,17.46
2022-12-11T04:14:04.954Z,17.46
2022-12-11T04:15:04.905Z,17.48
2022-12-11T04:16:04.946Z,17.48
2022-12-11T04:17:04.883Z,17.48
2022-12-11T04:18:04.891Z,17.46
2022-12-11T04:19:04.847Z,17.45
2022-12-11T04:20:04.872Z,17.46
2022-12-11T04:21:04.843Z,17.44
2022-12-11T04:22:04.833Z,17.44
2022-12-11T04:23:04.800Z,17.45
2022-12-11T04:24:04.803Z,17.44
2022-12-11T04:25:04.792Z,17.42
2022-12-11T04:26:04.788Z,17.42
2022-12-11T04:27:04.772Z,17.41
2022-12-11T04:28:04.774Z,17.39
2022-12-11T04:29:04.752Z,17.39
2022-12-11T04:30:04.850Z,17.39
2022-12-11T04:31:04.786Z,17.39
2022-12-11T04:32:04.710Z,17.39
2022-12-11T04:33:04.715Z,17.38
2022-12-11T04:34:04.700Z,17.38
2022-12-11T04:35:04.696Z,17.38
2022-12-11T04:36:04.686Z,17.36
2022-12-11T04:37:04.677Z,17.36
2022-12-11T04:38:04.670Z,17.34
2022-12-11T04:39:04.668Z,17.34
2022-12-11T04:40:04.617Z,17.34
2022-12-11T04:41:04.626Z,17.34
2022-12-11T04:42:04.639Z,17.33
2022-12-11T04:43:11.647Z,17.31
2022-12-11T04:44:04.599Z,17.31
2022-12-11T04:45:04.604Z,17.31
2022-12-11T04:46:04.612Z,17.31
2022-12-11T04:47:04.589Z,17.30
2022-12-11T04:48:04.558Z,17.30
2022-12-11T04:49:04.530Z,17.31
2022-12-11T04:50:04.545Z,17.30
2022-12-11T04:51:04.529Z,17.29
2022-12-11T04:52:04.508Z,17.30
2022-12-11T04:53:04.528Z,17.29
2022-12-11T04:54:04.607Z,17.30
2022-12-11T04:55:04.467Z,17.29
2022-12-11T04:56:04.480Z,17.29
2022-12-11T04:57:04.484Z,17.30
2022-12-11T04:58:04.460Z,17.29
2022-12-11T04:59:04.447Z,17.30
2022-12-11T05:00:04.413Z,17.29
2022-12-11T05:01:04.410Z,17.29
2022-12-11T05:02:04.453Z,17.29
2022-12-11T05:03:04.420Z,17.29
2022-12-11T05:04:04.386Z,17.29
2022-12-11T05:05:04.378Z,17.29
2022-12-11T05:06:04.343Z,17.29
2022-12-11T05:07:04.336Z,17.29
2022-12-11T05:08:04.445Z,17.27
2022-12-11T05:09:04.312Z,17.27
2022-12-11T05:10:04.337Z,17.27
2022-12-11T05:11:04.322Z,17.27
2022-12-11T05:12:04.273Z,17.29
2022-12-11T05:13:04.295Z,17.29
2022-12-11T05:14:04.300Z,17.27
2022-12-11T05:15:04.299Z,17.27
2022-12-11T05:16:04.268Z,17.29
2022-12-11T05:17:04.233Z,17.29
2022-12-11T05:18:04.221Z,17.27
2022-12-11T05:19:04.245Z,17.27
2022-12-11T05:20:04.216Z,17.29
2022-12-11T05:21:04.183Z,17.27
2022-12-11T05:22:04.223Z,17.27
2022-12-11T05:23:04.186Z,17.27
2022-12-11T05:24:04.236Z,17.29
2022-12-11T05:25:04.161Z,17.27
2022-12-11T05:26:04.155Z,17.27
2022-12-11T05:27:04.177Z,17.29
2022-12-11T05:28:04.123Z,17.27
2022-12-11T05:29:04.116Z,17.29
2022-12-11T05:30:04.095Z,17.29
2022-12-11T05:31:04.228Z,17.29
2022-12-11T05:32:04.109Z,17.30
2022-12-11T05:33:04.062Z,17.31
2022-12-11T05:34:04.042Z,17.30
2022-12-11T05:35:04.041Z,17.31
2022-12-11T05:36:04.032Z,17.31
2022-12-11T05:37:04.063Z,17.31
2022-12-11T05:38:04.000Z,17.30
2022-12-11T05:39:04.003Z,17.31
2022-12-11T05:40:03.980Z,17.31
2022-12-11T05:41:03.970Z,17.30
2022-12-11T05:42:03.974Z,17.31
2022-12-11T05:43:03.983Z,17.31
2022-12-11T05:44:03.947Z,17.31
2022-12-11T05:45:03.927Z,17.31
2022-12-11T05:46:03.922Z,17.33
2022-12-11T05:47:03.907Z,17.33
2022-12-11T05:48:03.919Z,17.34
2022-12-11T05:49:03.937Z,17.33
2022-12-11T05:50:03.871Z,17.34
2022-12-11T05:51:03.861Z,17.33
2022-12-11T05:52:03.866Z,17.36
2022-12-11T05:53:03.848Z,17.36
2022-12-11T05:54:03.872Z,17.36
2022-12-11T05:55:03.857Z,17.38
2022-12-11T05:56:03.809Z,17.38
2022-12-11T05:57:03.799Z,17.38
2022-12-11T05:58:03.794Z,17.38
2022-12-11T05:59:03.823Z,17.38
2022-12-11T06:00:03.775Z,17.39
2022-12-11T06:01:03.763Z,17.38
2022-12-11T06:02:03.849Z,17.39
2022-12-11T06:03:03.887Z,17.39
2022-12-11T06:04:03.794Z,17.39
2022-12-11T06:05:03.755Z,17.39
2022-12-11T06:06:03.732Z,17.39
2022-12-11T06:07:03.762Z,17.39
2022-12-11T06:08:03.797Z,17.39
2022-12-11T06:09:03.708Z,17.41
2022-12-11T06:10:03.655Z,17.41
2022-12-11T06:11:03.664Z,17.41
2022-12-11T06:12:03.684Z,17.39
2022-12-11T06:13:03.644Z,17.41
2022-12-11T06:14:03.637Z,17.39
2022-12-11T06:15:03.597Z,17.39
2022-12-11T06:16:03.649Z,17.41
2022-12-11T06:17:03.604Z,17.41
2022-12-11T06:18:03.618Z,17.41
2022-12-11T06:19:03.649Z,17.41
2022-12-11T06:20:03.615Z,17.41
2022-12-11T06:21:03.566Z,17.41
2022-12-11T06:22:03.526Z,17.41
2022-12-11T06:23:03.562Z,17.41
2022-12-11T06:24:03.552Z,17.42
2022-12-11T06:25:03.508Z,17.42
2022-12-11T06:26:03.529Z,17.41
2022-12-11T06:27:03.476Z,17.42
2022-12-11T06:28:03.466Z,17.44
2022-12-11T06:29:06.318Z,17.44
2022-12-11T06:30:04.438Z,17.44
2022-12-11T06:31:03.435Z,17.44
2022-12-11T06:32:03.557Z,17.44
2022-12-11T06:33:03.427Z,17.45
2022-12-11T06:34:03.395Z,17.45
2022-12-11T06:35:03.416Z,17.45
2022-12-11T06:36:03.376Z,17.45
2022-12-11T06:37:03.379Z,17.45
2022-12-11T06:38:03.394Z,17.45
2022-12-11T06:39:03.360Z,17.45
2022-12-11T06:40:03.342Z,17.45
2022-12-11T06:41:03.354Z,17.46
2022-12-11T06:42:03.313Z,17.46
2022-12-11T06:43:03.302Z,17.45
2022-12-11T06:44:03.330Z,17.45
2022-12-11T06:45:03.275Z,17.48
2022-12-11T06:46:04.393Z,17.45
2022-12-11T06:47:03.281Z,17.45
2022-12-11T06:48:03.253Z,17.45
2022-12-11T06:49:03.268Z,17.46
2022-12-11T06:50:03.233Z,17.46
2022-12-11T06:51:03.238Z,17.46
2022-12-11T06:52:03.218Z,17.45
2022-12-11T06:53:03.235Z,17.45
2022-12-11T06:54:03.174Z,17.46
2022-12-11T06:55:03.203Z,17.45
2022-12-11T06:56:03.168Z,17.45
2022-12-11T06:57:03.158Z,17.45
2022-12-11T06:58:03.147Z,17.46
2022-12-11T06:59:07.292Z,17.45
2022-12-11T07:00:03.129Z,17.45
2022-12-11T07:01:03.185Z,17.44
2022-12-11T07:02:10.623Z,17.44
2022-12-11T07:03:10.172Z,17.44
2022-12-11T07:04:10.571Z,17.44
2022-12-11T07:05:10.971Z,17.44
2022-12-11T07:06:10.085Z,17.45
2022-12-11T07:07:03.052Z,17.44
2022-12-11T07:08:11.790Z,17.44
2022-12-11T07:09:11.776Z,17.44
2022-12-11T07:10:07.966Z,17.45
2022-12-11T07:15:02.608Z,17.46
2022-12-11T07:16:02.615Z,17.44
2022-12-11T07:17:02.609Z,17.44
2022-12-11T07:18:02.535Z,17.42
2022-12-11T07:19:02.540Z,17.42
2022-12-11T07:20:02.563Z,17.44
2022-12-11T07:21:02.535Z,17.42
2022-12-11T07:22:02.527Z,17.45
2022-12-11T07:23:02.485Z,17.42
2022-12-11T07:24:02.507Z,17.42
2022-12-11T07:25:02.482Z,17.44
2022-12-11T07:26:02.460Z,17.44
2022-12-11T07:27:02.469Z,17.44
2022-12-11T07:28:02.439Z,17.44
2022-12-11T07:29:02.423Z,17.45
2022-12-11T07:30:02.494Z,17.44
2022-12-11T07:31:02.407Z,17.42
2022-12-11T07:32:02.497Z,17.44
2022-12-11T07:33:02.477Z,17.44
2022-12-11T07:34:02.389Z,17.45
2022-12-11T07:35:02.383Z,17.44
2022-12-11T07:36:02.356Z,17.44
2022-12-11T07:37:02.407Z,17.42
2022-12-11T07:38:02.327Z,17.44
2022-12-11T07:39:02.338Z,17.44
2022-12-11T07:40:02.375Z,17.44
2022-12-11T07:41:02.304Z,17.46
2022-12-11T07:42:02.328Z,17.46
2022-12-11T07:43:02.329Z,17.45
2022-12-11T07:44:02.278Z,17.45
2022-12-11T07:45:02.269Z,17.45
2022-12-11T07:46:02.327Z,17.45
2022-12-11T07:47:02.275Z,17.46
2022-12-11T07:48:02.308Z,17.46
2022-12-11T07:49:02.194Z,17.46
2022-12-11T07:50:02.192Z,17.45
2022-12-11T07:51:02.201Z,17.45
2022-12-11T07:52:02.199Z,17.46
2022-12-11T07:53:02.195Z,17.46
2022-12-11T07:54:02.159Z,17.46
2022-12-11T07:55:02.143Z,17.48
2022-12-11T07:56:02.133Z,17.48
2022-12-11T07:57:02.112Z,17.46
2022-12-11T07:58:02.145Z,17.46
2022-12-11T07:59:02.120Z,17.48
2022-12-11T08:00:02.143Z,17.48
2022-12-11T08:01:02.135Z,17.48
2022-12-11T08:02:02.172Z,17.49
2022-12-11T08:03:02.139Z,17.48
2022-12-11T08:04:02.101Z,17.49
2022-12-11T08:05:02.104Z,17.48
2022-12-11T08:06:02.022Z,17.48
2022-12-11T08:07:02.054Z,17.49
2022-12-11T08:08:02.072Z,17.48
2022-12-11T08:09:02.033Z,17.49
2022-12-11T08:10:01.987Z,17.48
2022-12-11T08:11:01.976Z,17.48
2022-12-11T08:12:01.994Z,17.49
2022-12-11T08:13:01.938Z,17.49
2022-12-11T08:14:01.974Z,17.48
2022-12-11T08:15:01.925Z,17.49
2022-12-11T08:16:01.967Z,17.48
2022-12-11T08:17:01.919Z,17.48
2022-12-11T08:18:01.914Z,17.48
2022-12-11T08:19:01.895Z,17.49
2022-12-11T08:20:01.873Z,17.49
2022-12-11T08:21:01.874Z,17.49
2022-12-11T08:22:01.833Z,17.51
2022-12-11T08:23:01.819Z,17.49
2022-12-11T08:24:01.847Z,17.51
2022-12-11T08:25:01.814Z,17.49
2022-12-11T08:26:01.854Z,17.49
2022-12-11T08:27:01.840Z,17.49
2022-12-11T08:28:01.792Z,17.49
2022-12-11T08:29:01.762Z,17.49
2022-12-11T08:30:01.828Z,17.49
2022-12-11T08:31:01.782Z,17.51
2022-12-11T08:32:01.736Z,17.49
2022-12-11T08:33:01.718Z,17.49
2022-12-11T08:34:01.765Z,17.49
2022-12-11T08:35:01.690Z,17.49
2022-12-11T08:36:01.927Z,17.51
2022-12-11T08:37:01.707Z,17.51
2022-12-11T08:38:01.707Z,17.49
2022-12-11T08:39:01.670Z,17.51
2022-12-11T08:40:01.649Z,17.52
2022-12-11T08:41:01.642Z,17.51
2022-12-11T08:42:01.645Z,17.51
2022-12-11T08:43:01.632Z,17.51
2022-12-11T08:44:01.894Z,17.51
2022-12-11T08:45:01.626Z,17.51
2022-12-11T08:46:01.660Z,17.52
2022-12-11T08:47:01.576Z,17.51
2022-12-11T08:48:01.594Z,17.54
2022-12-11T08:49:01.529Z,17.54
2022-12-11T08:50:01.539Z,17.52
2022-12-11T08:51:01.510Z,17.52
2022-12-11T08:52:01.537Z,17.51
2022-12-11T08:53:01.520Z,17.54
2022-12-11T08:54:01.478Z,17.52
2022-12-11T08:55:01.496Z,17.54
2022-12-11T08:56:01.476Z,17.54
2022-12-11T08:57:01.482Z,17.54
2022-12-11T08:58:01.448Z,17.54
2022-12-11T08:59:01.435Z,17.56
2022-12-11T09:00:01.431Z,17.57
2022-12-11T09:01:01.465Z,17.56
2022-12-11T09:02:01.465Z,17.56
2022-12-11T09:03:01.365Z,17.57
2022-12-11T09:04:01.386Z,17.57
2022-12-11T09:05:01.377Z,17.57
2022-12-11T09:06:01.362Z,17.57
2022-12-11T09:07:01.339Z,17.59
2022-12-11T09:08:01.386Z,17.60
2022-12-11T09:09:01.325Z,17.63
2022-12-11T09:10:01.327Z,17.60
2022-12-11T09:11:01.322Z,17.60
2022-12-11T09:12:01.307Z,17.59
2022-12-11T09:13:01.308Z,17.59
2022-12-11T09:14:06.749Z,17.59
2022-12-11T09:15:02.553Z,17.60
2022-12-11T09:16:01.246Z,17.59
2022-12-11T09:17:01.240Z,17.60
2022-12-11T09:18:01.243Z,17.59
2022-12-11T09:19:01.249Z,17.59
2022-12-11T09:20:01.188Z,17.59
2022-12-11T09:21:01.179Z,17.59
2022-12-11T09:22:01.180Z,17.59
2022-12-11T09:23:01.200Z,17.59
2022-12-11T09:24:01.144Z,17.59
2022-12-11T09:25:01.140Z,17.57
2022-12-11T09:26:01.115Z,17.57
2022-12-11T09:27:01.127Z,17.57
2022-12-11T09:28:01.110Z,17.56
2022-12-11T09:29:01.132Z,17.57
2022-12-11T09:30:01.100Z,17.54
2022-12-11T09:31:01.131Z,17.56
2022-12-11T09:32:01.054Z,17.54
2022-12-11T09:33:01.082Z,17.52
2022-12-11T09:34:01.074Z,17.51
2022-12-11T09:35:01.043Z,17.51
2022-12-11T09:36:01.051Z,17.51
2022-12-11T09:37:01.028Z,17.49
2022-12-11T09:38:01.003Z,17.48
2022-12-11T09:39:01.002Z,17.48
2022-12-11T09:40:07.095Z,17.45
2022-12-11T09:41:01.964Z,17.45
2022-12-11T09:42:00.948Z,17.44
2022-12-11T09:43:00.934Z,17.42
2022-12-11T09:44:00.969Z,17.42
2022-12-11T09:45:00.941Z,17.42
2022-12-11T09:46:01.013Z,17.41
2022-12-11T09:47:00.894Z,17.39
2022-12-11T09:48:00.893Z,17.39
2022-12-11T09:49:00.885Z,17.38
2022-12-11T09:50:00.904Z,17.38
2022-12-11T09:51:00.879Z,17.38
2022-12-11T09:52:00.848Z,17.36
2022-12-11T09:53:00.856Z,17.34
2022-12-11T09:54:00.822Z,17.34
2022-12-11T09:55:00.809Z,17.34
2022-12-11T09:56:00.809Z,17.34
2022-12-11T09:57:00.784Z,17.34
2022-12-11T09:58:00.763Z,17.34
2022-12-11T09:59:00.767Z,17.34
2022-12-11T10:00:04.974Z,17.34
2022-12-11T10:01:00.764Z,17.34
2022-12-11T10:02:00.739Z,17.33
2022-12-11T10:03:00.835Z,17.33
2022-12-11T10:04:00.717Z,17.33
2022-12-11T10:05:00.706Z,17.34
2022-12-11T10:06:04.493Z,17.34
2022-12-11T10:07:00.679Z,17.34
2022-12-11T10:08:00.815Z,17.34
2022-12-11T10:09:00.643Z,17.34
2022-12-11T10:10:00.666Z,17.36
2022-12-11T10:11:00.636Z,17.34
2022-12-11T10:12:00.625Z,17.36
2022-12-11T10:13:00.625Z,17.36
2022-12-11T10:14:00.595Z,17.38
2022-12-11T10:15:00.622Z,17.38
2022-12-11T10:16:00.633Z,17.38
2022-12-11T10:17:00.587Z,17.39
2022-12-11T10:18:04.831Z,17.39
2022-12-11T10:19:00.575Z,17.39
2022-12-11T10:20:00.561Z,17.39
2022-12-11T10:21:00.509Z,17.39
2022-12-11T10:22:00.508Z,17.41
2022-12-11T10:23:00.493Z,17.41
2022-12-11T10:24:00.510Z,17.42
2022-12-11T10:25:11.332Z,17.42
2022-12-11T10:26:01.590Z,17.42
2022-12-11T10:27:00.451Z,17.42
2022-12-11T10:28:00.519Z,17.42
2022-12-11T10:29:00.465Z,17.44
2022-12-11T10:30:00.424Z,17.45
2022-12-11T10:31:00.487Z,17.44
2022-12-11T10:32:00.393Z,17.45
2022-12-11T10:33:00.440Z,17.46
2022-12-11T10:34:00.395Z,17.44
2022-12-11T10:35:00.434Z,17.46
2022-12-11T10:36:00.365Z,17.45
2022-12-11T10:37:00.741Z,17.46
2022-12-11T10:38:00.320Z,17.46
2022-12-11T10:39:00.343Z,17.46
2022-12-11T10:40:00.310Z,17.46
2022-12-11T10:41:00.313Z,17.48
2022-12-11T10:42:00.284Z,17.48
2022-12-11T10:43:00.298Z,17.49
2022-12-11T10:44:00.298Z,17.49
2022-12-11T10:45:00.282Z,17.51
2022-12-11T10:46:00.295Z,17.51
2022-12-11T10:47:00.244Z,17.49
2022-12-11T10:48:00.226Z,17.51
2022-12-11T10:49:00.200Z,17.52
2022-12-11T10:50:00.197Z,17.51
2022-12-11T10:51:00.199Z,17.52
2022-12-11T10:52:00.250Z,17.54
2022-12-11T10:53:00.173Z,17.54
2022-12-11T10:54:05.601Z,17.54
2022-12-11T10:55:01.153Z,17.56
2022-12-11T10:56:00.146Z,17.56
2022-12-11T10:57:00.118Z,17.56
2022-12-11T10:58:00.108Z,17.54
2022-12-11T10:59:00.125Z,17.57
2022-12-11T11:00:00.116Z,17.56
2022-12-11T11:01:00.086Z,17.57
2022-12-11T11:02:01.446Z,17.59
2022-12-11T11:03:00.140Z,17.59
2022-12-11T11:04:00.051Z,17.59
2022-12-11T11:05:00.050Z,17.59
2022-12-11T11:06:00.011Z,17.60
2022-12-11T11:07:00.006Z,17.59
2022-12-11T11:08:00.072Z,17.60
2022-12-11T11:09:00.005Z,17.60
2022-12-11T11:10:00.010Z,17.63
2022-12-11T11:10:59.980Z,17.63
2022-12-11T11:12:04.437Z,17.60
2022-12-11T11:13:00.952Z,17.63
2022-12-11T11:13:59.941Z,17.63
2022-12-11T11:14:59.980Z,17.63
2022-12-11T11:15:59.960Z,17.63
2022-12-11T11:16:59.911Z,17.63
2022-12-11T11:17:59.890Z,17.64
2022-12-11T11:18:59.888Z,17.64
2022-12-11T11:19:59.864Z,17.64
2022-12-11T11:20:59.867Z,17.64
2022-12-11T11:21:59.862Z,17.65
2022-12-11T11:22:59.847Z,17.65
2022-12-11T11:24:07.373Z,17.64
2022-12-11T11:25:07.838Z,17.65
2022-12-11T11:26:07.317Z,17.65
2022-12-11T11:27:14.536Z,17.64
2022-12-11T11:31:59.431Z,17.70
2022-12-11T11:33:06.878Z,17.68
2022-12-11T11:33:59.327Z,17.68
2022-12-11T11:35:07.377Z,17.68
2022-12-11T11:36:06.336Z,17.67
2022-12-11T11:36:59.332Z,17.70
2022-12-11T11:38:06.805Z,17.70
2022-12-11T11:39:06.789Z,17.68
2022-12-11T11:40:07.949Z,17.68
2022-12-11T11:41:04.801Z,17.70
2022-12-11T11:42:00.260Z,17.70
2022-12-11T11:42:59.249Z,17.68
2022-12-11T11:43:59.251Z,17.68
2022-12-11T11:44:59.230Z,17.67
2022-12-11T11:45:59.249Z,17.67
2022-12-11T11:46:59.276Z,17.65
2022-12-11T11:47:59.211Z,17.65
2022-12-11T11:48:59.188Z,17.65
2022-12-11T11:49:59.209Z,17.63
2022-12-11T11:50:59.171Z,17.64
2022-12-11T11:51:59.149Z,17.60
2022-12-11T11:52:59.169Z,17.60
2022-12-11T11:53:59.115Z,17.59
2022-12-11T11:54:59.129Z,17.57
2022-12-11T11:55:59.114Z,17.57
2022-12-11T11:56:59.118Z,17.56
2022-12-11T11:57:59.108Z,17.52
2022-12-11T11:58:59.120Z,17.52
2022-12-11T11:59:59.056Z,17.52
2022-12-11T12:00:59.037Z,17.51
2022-12-11T12:01:59.054Z,17.49
2022-12-11T12:02:59.115Z,17.48
2022-12-11T12:03:59.012Z,17.46
2022-12-11T12:04:58.998Z,17.45
2022-12-11T12:05:59.024Z,17.44
2022-12-11T12:06:58.993Z,17.42
2022-12-11T12:07:59.021Z,17.42
2022-12-11T12:08:58.953Z,17.39
2022-12-11T12:09:58.979Z,17.39
2022-12-11T12:10:58.950Z,17.38
2022-12-11T12:11:58.932Z,17.38
2022-12-11T12:12:58.958Z,17.34
2022-12-11T12:13:58.904Z,17.34
2022-12-11T12:14:58.896Z,17.33
2022-12-11T12:15:58.944Z,17.33
2022-12-11T12:16:58.961Z,17.33
2022-12-11T12:17:58.862Z,17.31
2022-12-11T12:18:58.844Z,17.30
2022-12-11T12:19:58.857Z,17.30
2022-12-11T12:20:58.858Z,17.31
2022-12-11T12:21:58.807Z,17.30
2022-12-11T12:22:58.838Z,17.29
2022-12-11T12:23:58.820Z,17.31
2022-12-11T12:24:58.788Z,17.30
2022-12-11T12:25:58.775Z,17.30
2022-12-11T12:26:58.776Z,17.30
2022-12-11T12:27:58.759Z,17.30
2022-12-11T12:28:58.765Z,17.29
2022-12-11T12:29:58.737Z,17.29
2022-12-11T12:30:58.713Z,17.30
2022-12-11T12:31:58.738Z,17.30
2022-12-11T12:32:58.731Z,17.30
2022-12-11T12:33:58.686Z,17.30
2022-12-11T12:34:58.689Z,17.31
2022-12-11T12:36:03.459Z,17.31
2022-12-11T12:36:59.676Z,17.31
2022-12-11T12:37:58.647Z,17.33
2022-12-11T12:38:58.655Z,17.33
2022-12-11T12:39:58.646Z,17.34
2022-12-11T12:40:58.680Z,17.34
2022-12-11T12:42:03.968Z,17.38
2022-12-11T12:42:59.740Z,17.38
2022-12-11T12:43:58.641Z,17.38
2022-12-11T12:44:58.611Z,17.39
2022-12-11T12:45:58.621Z,17.39
2022-12-11T12:46:58.533Z,17.39
2022-12-11T12:47:58.554Z,17.41
2022-12-11T12:48:58.546Z,17.41
2022-12-11T12:49:58.502Z,17.39
2022-12-11T12:50:58.512Z,17.41
2022-12-11T12:51:58.535Z,17.41
2022-12-11T12:52:58.484Z,17.41
2022-12-11T12:53:58.530Z,17.39
2022-12-11T12:54:58.613Z,17.39
2022-12-11T12:55:58.459Z,17.41
2022-12-11T12:56:58.430Z,17.39
2022-12-11T12:57:58.428Z,17.39
2022-12-11T12:58:58.421Z,17.39
2022-12-11T12:59:58.421Z,17.38